^^
Grace C. Lehan Memorial Weather Station Historical Data
Daily Summary for June 22, 2021 Units:  Both    English   Metric
Daily Weekly Monthly Yearly
  High: Low: Average:
Temperature: 48.3 °F /  9.1 °C 32.7 °F /  0.4 °C 37.4 °F /  3 °C
Dew Point: 44.2 °F /  6.8 °C 19.8 °F /  -6.8 °C 30.9 °F /  -0.6 °C
Humidity: 97.4% 56% 79%
Wind Speed: 10.6mph /  17.1km/h - 2.6mph /  4.2km/h
Wind Gust: 26mph /  41.8km/h - -
Wind- - WSW
Pressure: 29.83 in /  1010 hPa 29.46 in /  997.5 hPa -
Precipitation: 0.18 in /  4.57 mm    
 
 
Tabular Data for June 22, 2021
Time Temperature Dew Point Pressure Wind Wind Speed Wind Gust Humidity Rainfall Rate (Hourly) solar
00:04 34.8 °F /  1.6 °C 30.5 °F /  -0.8 °C 29.83in /  1010hPa Calm     84.1% 0.00in /  0mm 0 W/m2
00:09 34.8 °F /  1.6 °C 30.5 °F /  -0.8 °C 29.82in /  1009.7hPa Calm     84% 0.00in /  0mm 0 W/m2
00:14 34.8 °F /  1.6 °C 30.7 °F /  -0.7 °C 29.82in /  1009.7hPa Calm     84.6% 0.00in /  0mm 0 W/m2
00:19 34.9 °F /  1.6 °C 30.8 °F /  -0.7 °C 29.82in /  1009.7hPa Calm     85% 0.00in /  0mm 0 W/m2
00:24 34.9 °F /  1.6 °C 30.9 °F /  -0.6 °C 29.82in /  1009.7hPa Calm     85% 0.00in /  0mm 0 W/m2
00:29 34.9 °F /  1.6 °C 30.9 °F /  -0.6 °C 29.81in /  1009.4hPa Calm     85.3% 0.00in /  0mm 0 W/m2
00:34 34.9 °F /  1.6 °C 31.1 °F /  -0.5 °C 29.80in /  1009hPa Calm     86% 0.00in /  0mm 0 W/m2
00:39 34.8 °F /  1.6 °C 31.1 °F /  -0.5 °C 29.80in /  1009hPa Calm     86% 0.00in /  0mm 0 W/m2
00:44 34.8 °F /  1.6 °C 31.3 °F /  -0.4 °C 29.79in /  1008.7hPa ESE 0.4mph /  0.6km/h 3mph /  4.8km/h 86.8% 0.00in /  0mm 0 W/m2
00:49 34.8 °F /  1.6 °C 31.3 °F /  -0.4 °C 29.79in /  1008.7hPa Calm   3mph /  4.8km/h 87% 0.00in /  0mm 0 W/m2
00:54 34.7 °F /  1.5 °C 31.3 °F /  -0.4 °C 29.78in /  1008.4hPa ENE 1.5mph /  2.4km/h 4mph /  6.4km/h 87% 0.00in /  0mm 0 W/m2
00:59 34.7 °F /  1.5 °C 31.3 °F /  -0.4 °C 29.77in /  1008hPa NNE 0.4mph /  0.6km/h 4mph /  6.4km/h 87.1% 0.00in /  0mm 0 W/m2
01:04 34.6 °F /  1.4 °C 31.5 °F /  -0.3 °C 29.77in /  1008hPa NNE 0.5mph /  0.8km/h 3mph /  4.8km/h 88% 0.00in /  0mm 0 W/m2
01:09 34.6 °F /  1.4 °C 31.4 °F /  -0.3 °C 29.77in /  1008hPa NNE 0.3mph /  0.5km/h 3mph /  4.8km/h 88% 0.00in /  0mm 0 W/m2
01:14 34.6 °F /  1.4 °C 31.4 °F /  -0.3 °C 29.76in /  1007.7hPa Calm   3mph /  4.8km/h 88% 0.00in /  0mm 0 W/m2
01:19 34.6 °F /  1.4 °C 31.5 °F /  -0.3 °C 29.76in /  1007.7hPa NNE 0.6mph /  1km/h 5mph /  8km/h 88.2% 0.00in /  0mm 0 W/m2
01:24 34.6 °F /  1.4 °C 31.7 °F /  -0.2 °C 29.76in /  1007.7hPa Calm   5mph /  8km/h 89% 0.00in /  0mm 0 W/m2
01:29 34.6 °F /  1.4 °C 31.7 °F /  -0.2 °C 29.76in /  1007.7hPa Calm   5mph /  8km/h 89% 0.00in /  0mm 0 W/m2
01:34 34.6 °F /  1.4 °C 31.7 °F /  -0.2 °C 29.76in /  1007.7hPa NNE 0.2mph /  0.3km/h 5mph /  8km/h 89% 0.00in /  0mm 0 W/m2
01:39 34.5 °F /  1.4 °C 31.6 °F /  -0.2 °C 29.76in /  1007.7hPa Calm   2mph /  3.2km/h 89% 0.00in /  0mm 0 W/m2
01:44 34.5 °F /  1.4 °C 31.6 °F /  -0.2 °C 29.76in /  1007.7hPa NNE 0.2mph /  0.3km/h 3mph /  4.8km/h 89% 0.00in /  0mm 0 W/m2
01:49 34.5 °F /  1.4 °C 31.6 °F /  -0.2 °C 29.75in /  1007.3hPa NNE 0.2mph /  0.3km/h 3mph /  4.8km/h 89% 0.00in /  0mm 0 W/m2
01:54 34.5 °F /  1.4 °C 31.6 °F /  -0.2 °C 29.75in /  1007.3hPa NNE 0.9mph /  1.4km/h 5mph /  8km/h 89% 0.00in /  0mm 0 W/m2
01:59 34.6 °F /  1.4 °C 31.7 °F /  -0.2 °C 29.74in /  1007hPa NNE 0.1mph /  0.2km/h 5mph /  8km/h 89% 0.00in /  0mm 0 W/m2
02:04 34.6 °F /  1.4 °C 31.7 °F /  -0.2 °C 29.74in /  1007hPa NNE 0.6mph /  1km/h 5mph /  8km/h 89% 0.00in /  0mm 0 W/m2
02:09 34.6 °F /  1.4 °C 31.7 °F /  -0.2 °C 29.74in /  1007hPa North 0.7mph /  1.1km/h 5mph /  8km/h 89% 0.00in /  0mm 0 W/m2
02:14 34.6 °F /  1.4 °C 31.7 °F /  -0.2 °C 29.73in /  1006.7hPa North 0.2mph /  0.3km/h 5mph /  8km/h 89% 0.00in /  0mm 0 W/m2
02:19 34.6 °F /  1.4 °C 31.7 °F /  -0.2 °C 29.73in /  1006.7hPa North 0.2mph /  0.3km/h 5mph /  8km/h 89% 0.00in /  0mm 0 W/m2
02:24 34.6 °F /  1.4 °C 31.7 °F /  -0.2 °C 29.73in /  1006.7hPa Calm   5mph /  8km/h 89% 0.00in /  0mm 0 W/m2
02:29 34.7 °F /  1.5 °C 31.8 °F /  -0.1 °C 29.73in /  1006.7hPa Calm   5mph /  8km/h 89.1% 0.00in /  0mm 0 W/m2
02:34 34.7 °F /  1.5 °C 32.1 °F /  0.1 °C 29.73in /  1006.7hPa North 0.6mph /  1km/h 5mph /  8km/h 90% 0.00in /  0mm 0 W/m2
02:39 34.8 °F /  1.6 °C 32.2 °F /  0.1 °C 29.72in /  1006.3hPa North 0.4mph /  0.6km/h 4mph /  6.4km/h 90% 0.00in /  0mm 0 W/m2
02:44 34.8 °F /  1.6 °C 32.2 °F /  0.1 °C 29.71in /  1006hPa North 0.1mph /  0.2km/h 4mph /  6.4km/h 90% 0.00in /  0mm 0 W/m2
02:49 34.8 °F /  1.6 °C 32.2 °F /  0.1 °C 29.71in /  1006hPa North 1.6mph /  2.6km/h 4mph /  6.4km/h 90% 0.00in /  0mm 0 W/m2
02:54 34.8 °F /  1.6 °C 32.2 °F /  0.1 °C 29.70in /  1005.6hPa North 0.4mph /  0.6km/h 4mph /  6.4km/h 90% 0.00in /  0mm 0 W/m2
02:59 34.8 °F /  1.6 °C 32.2 °F /  0.1 °C 29.70in /  1005.6hPa North 1.1mph /  1.8km/h 6mph /  9.7km/h 90% 0.00in /  0mm 0 W/m2
03:04 34.8 °F /  1.6 °C 32.2 °F /  0.1 °C 29.70in /  1005.6hPa North 0.8mph /  1.3km/h 6mph /  9.7km/h 90% 0.00in /  0mm 0 W/m2
03:09 34.8 °F /  1.6 °C 32.2 °F /  0.1 °C 29.69in /  1005.3hPa North 0.2mph /  0.3km/h 5mph /  8km/h 90% 0.00in /  0mm 0 W/m2
03:14 34.9 °F /  1.6 °C 32.3 °F /  0.2 °C 29.70in /  1005.6hPa North 0.4mph /  0.6km/h 5mph /  8km/h 90.1% 0.00in /  0mm 0 W/m2
03:19 35 °F /  1.7 °C 32.6 °F /  0.3 °C 29.70in /  1005.6hPa North 0.7mph /  1.1km/h 5mph /  8km/h 91% 0.00in /  0mm 0 W/m2
03:24 35 °F /  1.7 °C 32.6 °F /  0.3 °C 29.68in /  1005hPa North 0.5mph /  0.8km/h 5mph /  8km/h 91% 0.01in /  0.25mm 0 W/m2
03:29 35 °F /  1.7 °C 32.6 °F /  0.3 °C 29.68in /  1005hPa North 0.2mph /  0.3km/h 5mph /  8km/h 91% 0.01in /  0.25mm 0 W/m2
03:34 35.1 °F /  1.7 °C 32.7 °F /  0.4 °C 29.68in /  1005hPa North 0.3mph /  0.5km/h 5mph /  8km/h 91% 0.01in /  0.25mm 0 W/m2
03:39 35.1 °F /  1.7 °C 32.7 °F /  0.4 °C 29.67in /  1004.6hPa Calm   3mph /  4.8km/h 91% 0.01in /  0.25mm 0 W/m2
03:44 35.1 °F /  1.7 °C 32.7 °F /  0.4 °C 29.67in /  1004.6hPa Calm   3mph /  4.8km/h 91% 0.01in /  0.25mm 0 W/m2
03:49 35.1 °F /  1.7 °C 32.7 °F /  0.4 °C 29.66in /  1004.3hPa North 0.2mph /  0.3km/h 4mph /  6.4km/h 91% 0.01in /  0.25mm 0 W/m2
03:54 35 °F /  1.7 °C 32.7 °F /  0.4 °C 29.66in /  1004.3hPa North 0.4mph /  0.6km/h 4mph /  6.4km/h 91% 0.02in /  0.51mm 0 W/m2
03:59 34.9 °F /  1.6 °C 32.7 °F /  0.4 °C 29.66in /  1004.3hPa North 0.5mph /  0.8km/h 4mph /  6.4km/h 91.4% 0.02in /  0.51mm 0 W/m2
04:00 34.9 °F /  1.6 °C 32.8 °F /  0.4 °C 29.66in /  1004.3hPa Calm   4mph /  6.4km/h 92% 0.02in /  0.51mm 0 W/m2
04:09 34.8 °F /  1.6 °C 32.7 °F /  0.4 °C 29.65in /  1003.9hPa North 0.8mph /  1.3km/h 4mph /  6.4km/h 92% 0.02in /  0.51mm 0 W/m2
04:14 34.7 °F /  1.5 °C 32.7 °F /  0.4 °C 29.64in /  1003.6hPa NNE 0.7mph /  1.1km/h 4mph /  6.4km/h 92% 0.03in /  0.76mm 0 W/m2
04:19 34.7 °F /  1.5 °C 32.6 °F /  0.3 °C 29.64in /  1003.6hPa Calm   4mph /  6.4km/h 92% 0.03in /  0.76mm 0 W/m2
04:24 34.6 °F /  1.4 °C 32.5 °F /  0.3 °C 29.64in /  1003.6hPa NNE 0.3mph /  0.5km/h 4mph /  6.4km/h 92% 0.03in /  0.76mm 0 W/m2
04:29 34.6 °F /  1.4 °C 32.5 °F /  0.3 °C 29.64in /  1003.6hPa NNE 0.8mph /  1.3km/h 5mph /  8km/h 92% 0.03in /  0.76mm 0 W/m2
04:34 34.5 °F /  1.4 °C 32.4 °F /  0.2 °C 29.63in /  1003.3hPa NE 1.2mph /  1.9km/h 5mph /  8km/h 92% 0.03in /  0.76mm 0 W/m2
04:39 34.4 °F /  1.3 °C 32.4 °F /  0.2 °C 29.63in /  1003.3hPa NE 1mph /  1.6km/h 5mph /  8km/h 92.2% 0.02in /  0.51mm 0 W/m2
04:44 34.3 °F /  1.3 °C 32.5 °F /  0.3 °C 29.62in /  1002.9hPa NE 0.5mph /  0.8km/h 5mph /  8km/h 93% 0.02in /  0.51mm 0 W/m2
04:49 34.3 °F /  1.3 °C 32.5 °F /  0.3 °C 29.62in /  1002.9hPa NE 2.5mph /  4km/h 6mph /  9.7km/h 93% 0.02in /  0.51mm 0 W/m2
04:54 34.3 °F /  1.3 °C 32.5 °F /  0.3 °C 29.61in /  1002.6hPa NE 0.1mph /  0.2km/h 6mph /  9.7km/h 93% 0.02in /  0.51mm 0 W/m2
04:59 34.3 °F /  1.3 °C 32.5 °F /  0.3 °C 29.61in /  1002.6hPa NE 0.4mph /  0.6km/h 6mph /  9.7km/h 93% 0.02in /  0.51mm 0 W/m2
05:04 34.3 °F /  1.3 °C 32.5 °F /  0.3 °C 29.61in /  1002.6hPa Calm   6mph /  9.7km/h 93% 0.02in /  0.51mm 0 W/m2
05:09 34.3 °F /  1.3 °C 32.5 °F /  0.3 °C 29.60in /  1002.3hPa Calm     93% 0.00in /  0mm 0 W/m2
05:14 34.3 °F /  1.3 °C 32.5 °F /  0.3 °C 29.60in /  1002.3hPa NE 0.3mph /  0.5km/h 4mph /  6.4km/h 93% 0.00in /  0mm 0 W/m2
05:19 34.3 °F /  1.3 °C 32.5 °F /  0.3 °C 29.60in /  1002.3hPa NE 0.4mph /  0.6km/h 4mph /  6.4km/h 93% 0.00in /  0mm 0 W/m2
05:24 34.4 °F /  1.3 °C 32.6 °F /  0.3 °C 29.60in /  1002.3hPa North 0.8mph /  1.3km/h 4mph /  6.4km/h 93% 0.00in /  0mm 0 W/m2
05:29 34.4 °F /  1.3 °C 32.6 °F /  0.3 °C 29.59in /  1001.9hPa North 0.2mph /  0.3km/h 4mph /  6.4km/h 93% 0.00in /  0mm 0 W/m2
05:34 34.4 °F /  1.3 °C 32.6 °F /  0.3 °C 29.59in /  1001.9hPa Calm   4mph /  6.4km/h 93.1% 0.00in /  0mm 0 W/m2
05:39 34.5 °F /  1.4 °C 32.9 °F /  0.5 °C 29.59in /  1001.9hPa North 1.2mph /  1.9km/h 6mph /  9.7km/h 94% 0.00in /  0mm 0 W/m2
05:44 34.5 °F /  1.4 °C 32.8 °F /  0.4 °C 29.59in /  1001.9hPa Calm   6mph /  9.7km/h 93.5% 0.00in /  0mm 0 W/m2
05:49 34.5 °F /  1.4 °C 33 °F /  0.6 °C 29.58in /  1001.6hPa NNW 1.5mph /  2.4km/h 6mph /  9.7km/h 94% 0.00in /  0mm 0 W/m2
05:54 34.6 °F /  1.4 °C 33 °F /  0.6 °C 29.58in /  1001.6hPa Calm   6mph /  9.7km/h 94% 0.00in /  0mm 0 W/m2
05:59 34.6 °F /  1.4 °C 33 °F /  0.6 °C 29.58in /  1001.6hPa NNW 0.7mph /  1.1km/h 6mph /  9.7km/h 94% 0.00in /  0mm 0 W/m2
06:04 34.6 °F /  1.4 °C 33.1 °F /  0.6 °C 29.58in /  1001.6hPa NNW 0.7mph /  1.1km/h 6mph /  9.7km/h 94% 0.00in /  0mm 0 W/m2
06:09 34.6 °F /  1.4 °C 33.1 °F /  0.6 °C 29.57in /  1001.2hPa NNW 0.3mph /  0.5km/h 6mph /  9.7km/h 94% 0.00in /  0mm 0 W/m2
06:14 34.7 °F /  1.5 °C 33.1 °F /  0.6 °C 29.57in /  1001.2hPa Calm   6mph /  9.7km/h 94% 0.00in /  0mm 0 W/m2
06:19 34.7 °F /  1.5 °C 33.2 °F /  0.7 °C 29.57in /  1001.2hPa Calm   6mph /  9.7km/h 94% 0.00in /  0mm 0 W/m2
06:24 34.8 °F /  1.6 °C 33.2 °F /  0.7 °C 29.56in /  1000.9hPa NNW 0.4mph /  0.6km/h 6mph /  9.7km/h 94% 0.00in /  0mm 0 W/m2
06:29 34.8 °F /  1.6 °C 33.3 °F /  0.7 °C 29.56in /  1000.9hPa Calm   6mph /  9.7km/h 94% 0.00in /  0mm 0 W/m2
06:34 34.9 °F /  1.6 °C 33.3 °F /  0.7 °C 29.57in /  1001.2hPa NNW 0.9mph /  1.4km/h 6mph /  9.7km/h 94% 0.00in /  0mm 0 W/m2
06:39 34.9 °F /  1.6 °C 33.3 °F /  0.7 °C 29.57in /  1001.2hPa NNW 0.4mph /  0.6km/h 4mph /  6.4km/h 94% 0.00in /  0mm 0 W/m2
06:44 35 °F /  1.7 °C 33.4 °F /  0.8 °C 29.57in /  1001.2hPa NNW 0.7mph /  1.1km/h 4mph /  6.4km/h 94% 0.00in /  0mm 0 W/m2
06:49 35 °F /  1.7 °C 33.5 °F /  0.8 °C 29.58in /  1001.6hPa NNW 0.7mph /  1.1km/h 4mph /  6.4km/h 94% 0.00in /  0mm 0 W/m2
06:54 35.1 °F /  1.7 °C 33.6 °F /  0.9 °C 29.58in /  1001.6hPa NNW 0.3mph /  0.5km/h 4mph /  6.4km/h 94% 0.01in /  0.25mm 0 W/m2
06:59 35.2 °F /  1.8 °C 33.7 °F /  0.9 °C 29.58in /  1001.6hPa Calm   4mph /  6.4km/h 94% 0.01in /  0.25mm 0 W/m2
07:04 35.3 °F /  1.8 °C 33.7 °F /  0.9 °C 29.58in /  1001.6hPa Calm   4mph /  6.4km/h 94% 0.01in /  0.25mm 0 W/m2
07:09 35.3 °F /  1.8 °C 33.8 °F /  1 °C 29.58in /  1001.6hPa Calm     94% 0.01in /  0.25mm 0 W/m2
07:14 35.4 °F /  1.9 °C 33.9 °F /  1.1 °C 29.58in /  1001.6hPa Calm     94% 0.01in /  0.25mm 0 W/m2
07:19 35.6 °F /  2 °C 34 °F /  1.1 °C 29.58in /  1001.6hPa NNW 0.1mph /  0.2km/h 3mph /  4.8km/h 94% 0.02in /  0.51mm 0 W/m2
07:24 35.7 °F /  2.1 °C 34.1 °F /  1.2 °C 29.57in /  1001.2hPa Calm   3mph /  4.8km/h 94% 0.03in /  0.76mm 0 W/m2
07:29 35.8 °F /  2.1 °C 34.2 °F /  1.2 °C 29.57in /  1001.2hPa Calm   3mph /  4.8km/h 94% 0.03in /  0.76mm 0 W/m2
07:34 35.9 °F /  2.2 °C 34.6 °F /  1.4 °C 29.57in /  1001.2hPa Calm   3mph /  4.8km/h 94.8% 0.04in /  1.02mm 0 W/m2
07:39 36 °F /  2.2 °C 34.7 °F /  1.5 °C 29.57in /  1001.2hPa Calm     95% 0.04in /  1.02mm 0 W/m2
07:44 36.1 °F /  2.3 °C 34.8 °F /  1.6 °C 29.57in /  1001.2hPa Calm     95% 0.04in /  1.02mm 0 W/m2
07:49 36.1 °F /  2.3 °C 34.8 °F /  1.6 °C 29.57in /  1001.2hPa Calm     95% 0.05in /  1.27mm 0 W/m2
07:54 36.2 °F /  2.3 °C 34.9 °F /  1.6 °C 29.57in /  1001.2hPa Calm     95% 0.06in /  1.52mm 5 W/m2
07:59 36.3 °F /  2.4 °C 35 °F /  1.7 °C 29.57in /  1001.2hPa NNW 0.4mph /  0.6km/h 3mph /  4.8km/h 95% 0.07in /  1.78mm 7 W/m2
08:00 36.4 °F /  2.4 °C 35.1 °F /  1.7 °C 29.56in /  1000.9hPa Calm   3mph /  4.8km/h 95% 0.07in /  1.78mm 7 W/m2
08:09 36.5 °F /  2.5 °C 35.2 °F /  1.8 °C 29.56in /  1000.9hPa Calm     95% 0.07in /  1.78mm 14 W/m2
08:14 36.6 °F /  2.6 °C 35.3 °F /  1.8 °C 29.56in /  1000.9hPa Calm     95% 0.07in /  1.78mm 18 W/m2
08:19 36.7 °F /  2.6 °C 36 °F /  2.2 °C 29.55in /  1000.6hPa North 1.1mph /  1.8km/h 5mph /  8km/h 97.4% 0.07in /  1.78mm 21 W/m2
08:24 36.8 °F /  2.7 °C 35.5 °F /  1.9 °C 29.55in /  1000.6hPa Calm   5mph /  8km/h 95% 0.08in /  2.03mm 19 W/m2
08:29 36.9 °F /  2.7 °C 35.6 °F /  2 °C 29.55in /  1000.6hPa Calm   5mph /  8km/h 95% 0.08in /  2.03mm 18 W/m2
08:34 37.1 °F /  2.8 °C 35.8 °F /  2.1 °C 29.55in /  1000.6hPa Calm   5mph /  8km/h 95% 0.08in /  2.03mm 21 W/m2
08:39 37.2 °F /  2.9 °C 35.9 °F /  2.2 °C 29.55in /  1000.6hPa North 0.2mph /  0.3km/h 2mph /  3.2km/h 95% 0.07in /  1.78mm 26 W/m2
08:44 37.3 °F /  2.9 °C 36 °F /  2.2 °C 29.55in /  1000.6hPa North 0.6mph /  1km/h 3mph /  4.8km/h 95% 0.07in /  1.78mm 32 W/m2
08:49 37.4 °F /  3 °C 36.1 °F /  2.3 °C 29.55in /  1000.6hPa Calm   3mph /  4.8km/h 95% 0.08in /  2.03mm 28 W/m2
08:54 37.5 °F /  3.1 °C 36.2 °F /  2.3 °C 29.55in /  1000.6hPa Calm   3mph /  4.8km/h 95% 0.08in /  2.03mm 51 W/m2
08:59 37.5 °F /  3.1 °C 36.2 °F /  2.3 °C 29.54in /  1000.2hPa Calm   3mph /  4.8km/h 95% 0.08in /  2.03mm 54 W/m2
09:04 37.6 °F /  3.1 °C 36.3 °F /  2.4 °C 29.54in /  1000.2hPa North 0.3mph /  0.5km/h 3mph /  4.8km/h 95% 0.08in /  2.03mm 37 W/m2
09:09 37.7 °F /  3.2 °C 36.4 °F /  2.4 °C 29.54in /  1000.2hPa Calm   3mph /  4.8km/h 95% 0.05in /  1.27mm 37 W/m2
09:14 37.7 °F /  3.2 °C 36.4 °F /  2.4 °C 29.54in /  1000.2hPa Calm   3mph /  4.8km/h 95% 0.05in /  1.27mm 23 W/m2
09:19 37.8 °F /  3.2 °C 36.5 °F /  2.5 °C 29.54in /  1000.2hPa Calm   3mph /  4.8km/h 95% 0.05in /  1.27mm 42 W/m2
09:24 37.8 °F /  3.2 °C 36.5 °F /  2.5 °C 29.54in /  1000.2hPa Calm   3mph /  4.8km/h 95% 0.06in /  1.52mm 54 W/m2
09:29 37.9 °F /  3.3 °C 36.6 °F /  2.6 °C 29.53in /  999.9hPa Calm   3mph /  4.8km/h 95% 0.06in /  1.52mm 49 W/m2
09:34 38 °F /  3.3 °C 36.7 °F /  2.6 °C 29.53in /  999.9hPa Calm   3mph /  4.8km/h 95% 0.06in /  1.52mm 35 W/m2
09:39 38.2 °F /  3.4 °C 36.9 °F /  2.7 °C 29.53in /  999.9hPa Calm     95% 0.05in /  1.27mm 33 W/m2
09:44 38.2 °F /  3.4 °C 36.9 °F /  2.7 °C 29.53in /  999.9hPa Calm     95% 0.05in /  1.27mm 33 W/m2
09:49 38.3 °F /  3.5 °C 37 °F /  2.8 °C 29.54in /  1000.2hPa Calm     95% 0.06in /  1.52mm 65 W/m2
09:54 38.4 °F /  3.6 °C 37.1 °F /  2.8 °C 29.53in /  999.9hPa Calm     95% 0.06in /  1.52mm 76 W/m2
09:59 38.5 °F /  3.6 °C 37.2 °F /  2.9 °C 29.53in /  999.9hPa North 0.3mph /  0.5km/h 2mph /  3.2km/h 95% 0.06in /  1.52mm 76 W/m2
10:04 38.7 °F /  3.7 °C 37.4 °F /  3 °C 29.53in /  999.9hPa Calm   2mph /  3.2km/h 95% 0.06in /  1.52mm 72 W/m2
10:09 38.9 °F /  3.8 °C 37.6 °F /  3.1 °C 29.53in /  999.9hPa Calm     95% 0.04in /  1.02mm 109 W/m2
10:14 38.9 °F /  3.8 °C 37.6 °F /  3.1 °C 29.52in /  999.5hPa Calm     95% 0.04in /  1.02mm 118 W/m2
10:19 39 °F /  3.9 °C 37.7 °F /  3.2 °C 29.52in /  999.5hPa Calm     95% 0.04in /  1.02mm 97 W/m2
10:24 39.2 °F /  4 °C 37.9 °F /  3.3 °C 29.52in /  999.5hPa Calm     95% 0.04in /  1.02mm 93 W/m2
10:29 39.4 °F /  4.1 °C 38.3 °F /  3.5 °C 29.51in /  999.2hPa Calm     96% 0.04in /  1.02mm 142 W/m2
10:34 39.6 °F /  4.2 °C 38.5 °F /  3.6 °C 29.51in /  999.2hPa Calm     95.9% 0.04in /  1.02mm 142 W/m2
10:39 39.7 °F /  4.3 °C 38.4 °F /  3.6 °C 29.51in /  999.2hPa Calm     95% 0.02in /  0.51mm 81 W/m2
10:44 39.8 °F /  4.3 °C 38.6 °F /  3.7 °C 29.51in /  999.2hPa North 0.4mph /  0.6km/h 4mph /  6.4km/h 95.2% 0.02in /  0.51mm 104 W/m2
10:49 40 °F /  4.4 °C 38.9 °F /  3.8 °C 29.50in /  998.9hPa Calm   4mph /  6.4km/h 96% 0.02in /  0.51mm 132 W/m2
10:54 40.1 °F /  4.5 °C 39.1 °F /  3.9 °C 29.50in /  998.9hPa North 0.2mph /  0.3km/h 4mph /  6.4km/h 96% 0.02in /  0.51mm 125 W/m2
10:59 40.3 °F /  4.6 °C 39.2 °F /  4 °C 29.50in /  998.9hPa North 0.4mph /  0.6km/h 4mph /  6.4km/h 95.9% 0.02in /  0.51mm 107 W/m2
11:04 40.4 °F /  4.7 °C 39.2 °F /  4 °C 29.50in /  998.9hPa North 0.3mph /  0.5km/h 4mph /  6.4km/h 95.2% 0.02in /  0.51mm 113 W/m2
11:09 40.5 °F /  4.7 °C 39.2 °F /  4 °C 29.50in /  998.9hPa Calm   2mph /  3.2km/h 95.1% 0.00in /  0mm 113 W/m2
11:14 40.6 °F /  4.8 °C 39.5 °F /  4.2 °C 29.49in /  998.5hPa Calm   2mph /  3.2km/h 96% 0.00in /  0mm 107 W/m2
11:19 40.6 °F /  4.8 °C 39.6 °F /  4.2 °C 29.49in /  998.5hPa Calm   2mph /  3.2km/h 96% 0.00in /  0mm 160 W/m2
11:24 40.7 °F /  4.8 °C 39.7 °F /  4.3 °C 29.49in /  998.5hPa Calm   2mph /  3.2km/h 96% 0.00in /  0mm 179 W/m2
11:29 40.9 °F /  4.9 °C 39.7 °F /  4.3 °C 29.48in /  998.2hPa Calm   2mph /  3.2km/h 95.6% 0.00in /  0mm 223 W/m2
11:34 41.2 °F /  5.1 °C 40 °F /  4.4 °C 29.48in /  998.2hPa Calm   2mph /  3.2km/h 95.6% 0.00in /  0mm 176 W/m2
11:39 41.6 °F /  5.3 °C 40.5 °F /  4.7 °C 29.47in /  997.9hPa Calm     96% 0.00in /  0mm 248 W/m2
11:44 41.9 °F /  5.5 °C 40.9 °F /  4.9 °C 29.47in /  997.9hPa Calm     96% 0.00in /  0mm 362 W/m2
11:49 42 °F /  5.6 °C 40.9 °F /  4.9 °C 29.47in /  997.9hPa Calm     96% 0.00in /  0mm 362 W/m2
11:54 42.1 °F /  5.6 °C 41 °F /  5 °C 29.46in /  997.5hPa Calm     96% 0.00in /  0mm 100 W/m2
11:59 42.4 °F /  5.8 °C 41.5 °F /  5.3 °C 29.46in /  997.5hPa Calm     96.8% 0.00in /  0mm 120 W/m2
12:00 42.6 °F /  5.9 °C 41.5 °F /  5.3 °C 29.46in /  997.5hPa Calm     96% 0.00in /  0mm 295 W/m2
12:09 43.3 °F /  6.3 °C 42.3 °F /  5.7 °C 29.47in /  997.9hPa North 0.2mph /  0.3km/h 3mph /  4.8km/h 96% 0.00in /  0mm 417 W/m2
12:14 43.9 °F /  6.6 °C 42.8 °F /  6 °C 29.46in /  997.5hPa North 0.3mph /  0.5km/h 3mph /  4.8km/h 96% 0.00in /  0mm 429 W/m2
12:19 44.6 °F /  7 °C 43.5 °F /  6.4 °C 29.46in /  997.5hPa North 0.4mph /  0.6km/h 4mph /  6.4km/h 96% 0.00in /  0mm 429 W/m2
12:24 45.2 °F /  7.3 °C 44.1 °F /  6.7 °C 29.46in /  997.5hPa North 0.2mph /  0.3km/h 4mph /  6.4km/h 96% 0.00in /  0mm 236 W/m2
12:29 45.4 °F /  7.4 °C 44.2 °F /  6.8 °C 29.46in /  997.5hPa North 1.2mph /  1.9km/h 4mph /  6.4km/h 95.4% 0.00in /  0mm 70 W/m2
12:34 45.4 °F /  7.4 °C 43.7 °F /  6.5 °C 29.46in /  997.5hPa North 1mph /  1.6km/h 5mph /  8km/h 93.7% 0.00in /  0mm 111 W/m2
12:39 45.7 °F /  7.6 °C 43.7 °F /  6.5 °C 29.46in /  997.5hPa North 1.8mph /  2.9km/h 5mph /  8km/h 92.7% 0.00in /  0mm 387 W/m2
12:44 46.1 °F /  7.8 °C 43.6 °F /  6.4 °C 29.46in /  997.5hPa North 0.7mph /  1.1km/h 5mph /  8km/h 90.7% 0.00in /  0mm 432 W/m2
12:49 46.8 °F /  8.2 °C 43.8 °F /  6.6 °C 29.46in /  997.5hPa NNW 1.7mph /  2.7km/h 5mph /  8km/h 89.3% 0.00in /  0mm 362 W/m2
12:54 47.2 °F /  8.4 °C 43 °F /  6.1 °C 29.46in /  997.5hPa NW 3.5mph /  5.6km/h 12mph /  19.3km/h 85% 0.00in /  0mm 306 W/m2
12:59 47.3 °F /  8.5 °C 41.3 °F /  5.2 °C 29.46in /  997.5hPa NW 7.1mph /  11.4km/h 16mph /  25.7km/h 79.4% 0.00in /  0mm 223 W/m2
13:04 47.2 °F /  8.4 °C 40.2 °F /  4.6 °C 29.46in /  997.5hPa NW 4.5mph /  7.2km/h 16mph /  25.7km/h 76.5% 0.00in /  0mm 142 W/m2
13:09 47.2 °F /  8.4 °C 39.1 °F /  3.9 °C 29.46in /  997.5hPa NNW 8.3mph /  13.4km/h 17mph /  27.4km/h 73.1% 0.00in /  0mm 329 W/m2
13:14 47.4 °F /  8.6 °C 38.5 °F /  3.6 °C 29.46in /  997.5hPa NW 3.4mph /  5.5km/h 17mph /  27.4km/h 71% 0.00in /  0mm 227 W/m2
13:19 47.7 °F /  8.7 °C 38.6 °F /  3.7 °C 29.46in /  997.5hPa NW 4.4mph /  7.1km/h 17mph /  27.4km/h 70.5% 0.00in /  0mm 299 W/m2
13:24 47.8 °F /  8.8 °C 38.2 °F /  3.4 °C 29.47in /  997.9hPa NW 7mph /  11.3km/h 18mph /  29km/h 69.4% 0.00in /  0mm 299 W/m2
13:29 47.5 °F /  8.6 °C 37.1 °F /  2.8 °C 29.47in /  997.9hPa WNW 8.6mph /  13.8km/h 22mph /  35.4km/h 67% 0.00in /  0mm 51 W/m2
13:34 47.3 °F /  8.5 °C 36.5 °F /  2.5 °C 29.47in /  997.9hPa NW 7mph /  11.3km/h 22mph /  35.4km/h 65.9% 0.00in /  0mm 67 W/m2
13:39 47.2 °F /  8.4 °C 36.1 °F /  2.3 °C 29.47in /  997.9hPa NW 10.6mph /  17.1km/h 19mph /  30.6km/h 65.1% 0.00in /  0mm 236 W/m2
13:44 47.3 °F /  8.5 °C 36 °F /  2.2 °C 29.47in /  997.9hPa NW 6.9mph /  11.1km/h 19mph /  30.6km/h 64.6% 0.00in /  0mm 195 W/m2
13:49 47.3 °F /  8.5 °C 35.9 °F /  2.2 °C 29.48in /  998.2hPa NW 6.7mph /  10.8km/h 19mph /  30.6km/h 64.3% 0.00in /  0mm 199 W/m2
13:54 47.3 °F /  8.5 °C 35.8 °F /  2.1 °C 29.48in /  998.2hPa NW 8.4mph /  13.5km/h 20mph /  32.2km/h 64% 0.00in /  0mm 262 W/m2
13:59 47.4 °F /  8.6 °C 35.5 °F /  1.9 °C 29.48in /  998.2hPa NW 7mph /  11.3km/h 20mph /  32.2km/h 63.2% 0.00in /  0mm 272 W/m2
14:04 47.6 °F /  8.7 °C 35.5 °F /  1.9 °C 29.48in /  998.2hPa NW 5.4mph /  8.7km/h 20mph /  32.2km/h 62.7% 0.00in /  0mm 329 W/m2
14:09 47.9 °F /  8.8 °C 35.8 °F /  2.1 °C 29.48in /  998.2hPa NW 4.4mph /  7.1km/h 18mph /  29km/h 62.7% 0.00in /  0mm 308 W/m2
14:14 48.2 °F /  9 °C 35.6 °F /  2 °C 29.49in /  998.5hPa NW 6.5mph /  10.5km/h 18mph /  29km/h 61.4% 0.00in /  0mm 239 W/m2
14:19 48.3 °F /  9.1 °C 35.5 °F /  1.9 °C 29.49in /  998.5hPa NW 6.6mph /  10.6km/h 18mph /  29km/h 61% 0.00in /  0mm 176 W/m2
14:24 47.9 °F /  8.8 °C 34.9 °F /  1.6 °C 29.49in /  998.5hPa WNW 7.5mph /  12.1km/h 19mph /  30.6km/h 60.5% 0.00in /  0mm 93 W/m2
14:29 47.4 °F /  8.6 °C 35 °F /  1.7 °C 29.49in /  998.5hPa NW 3.7mph /  6km/h 19mph /  30.6km/h 62% 0.00in /  0mm 65 W/m2
14:34 46.9 °F /  8.3 °C 34.8 °F /  1.6 °C 29.50in /  998.9hPa NW 7.4mph /  11.9km/h 20mph /  32.2km/h 62.7% 0.00in /  0mm 58 W/m2
14:39 46.3 °F /  7.9 °C 34.6 °F /  1.4 °C 29.51in /  999.2hPa NW 6.3mph /  10.1km/h 20mph /  32.2km/h 63.6% 0.00in /  0mm 47 W/m2
14:44 45.4 °F /  7.4 °C 34.1 °F /  1.2 °C 29.51in /  999.2hPa NW 10.2mph /  16.4km/h 26mph /  41.8km/h 64.3% 0.00in /  0mm 47 W/m2
14:49 44.6 °F /  7 °C 34 °F /  1.1 °C 29.52in /  999.5hPa NNW 6.7mph /  10.8km/h 26mph /  41.8km/h 66.2% 0.00in /  0mm 51 W/m2
14:54 44 °F /  6.7 °C 33.8 °F /  1 °C 29.52in /  999.5hPa NW 8.8mph /  14.2km/h 26mph /  41.8km/h 67% 0.00in /  0mm 65 W/m2
14:59 43.5 °F /  6.4 °C 33.4 °F /  0.8 °C 29.52in /  999.5hPa NW 7.4mph /  11.9km/h 26mph /  41.8km/h 67.2% 0.00in /  0mm 51 W/m2
15:04 43.2 °F /  6.2 °C 33.4 °F /  0.8 °C 29.53in /  999.9hPa NW 5mph /  8km/h 26mph /  41.8km/h 68% 0.00in /  0mm 56 W/m2
15:09 42.9 °F /  6.1 °C 33.1 °F /  0.6 °C 29.53in /  999.9hPa NW 5.7mph /  9.2km/h 19mph /  30.6km/h 68% 0.00in /  0mm 60 W/m2
15:14 42.7 °F /  5.9 °C 32.9 °F /  0.5 °C 29.54in /  1000.2hPa NW 6.7mph /  10.8km/h 19mph /  30.6km/h 67.9% 0.00in /  0mm 37 W/m2
15:19 42.4 °F /  5.8 °C 32.3 °F /  0.2 °C 29.55in /  1000.6hPa NW 9.4mph /  15.1km/h 19mph /  30.6km/h 67.2% 0.00in /  0mm 33 W/m2
15:24 42.2 °F /  5.7 °C 32 °F /  0 °C 29.55in /  1000.6hPa NW 5.1mph /  8.2km/h 19mph /  30.6km/h 67% 0.00in /  0mm 33 W/m2
15:29 42 °F /  5.6 °C 32.1 °F /  0.1 °C 29.55in /  1000.6hPa NW 5.7mph /  9.2km/h 19mph /  30.6km/h 67.7% 0.00in /  0mm 35 W/m2
15:34 41.8 °F /  5.4 °C 31.9 °F /  -0.1 °C 29.56in /  1000.9hPa NW 2.3mph /  3.7km/h 19mph /  30.6km/h 67.7% 0.00in /  0mm 28 W/m2
15:39 41.7 °F /  5.4 °C 31.7 °F /  -0.2 °C 29.56in /  1000.9hPa NW 6.2mph /  10km/h 17mph /  27.4km/h 67.5% 0.00in /  0mm 16 W/m2
15:44 41.5 °F /  5.3 °C 31.4 °F /  -0.3 °C 29.56in /  1000.9hPa NW 6.6mph /  10.6km/h 17mph /  27.4km/h 67% 0.00in /  0mm 11 W/m2
15:49 41.4 °F /  5.2 °C 31.3 °F /  -0.4 °C 29.57in /  1001.2hPa WNW 6.9mph /  11.1km/h 17mph /  27.4km/h 67% 0.00in /  0mm 9 W/m2
15:54 41.2 °F /  5.1 °C 31.1 °F /  -0.5 °C 29.57in /  1001.2hPa WNW 3.7mph /  6km/h 17mph /  27.4km/h 67% 0.00in /  0mm 12 W/m2
15:59 41.1 °F /  5.1 °C 31.2 °F /  -0.4 °C 29.58in /  1001.6hPa NNW 1.9mph /  3.1km/h 17mph /  27.4km/h 67.7% 0.00in /  0mm 12 W/m2
16:09 40.6 °F /  4.8 °C 30.5 °F /  -0.8 °C 29.58in /  1001.6hPa NW 5.9mph /  9.5km/h 15mph /  24.1km/h 67% 0.00in /  0mm 11 W/m2
16:14 40.3 °F /  4.6 °C 30.2 °F /  -1 °C 29.59in /  1001.9hPa NW 3.5mph /  5.6km/h 15mph /  24.1km/h 67% 0.00in /  0mm 9 W/m2
16:19 40 °F /  4.4 °C 29.9 °F /  -1.2 °C 29.59in /  1001.9hPa NW 7.8mph /  12.6km/h 19mph /  30.6km/h 67% 0.00in /  0mm 5 W/m2
16:24 39.5 °F /  4.2 °C 29.5 °F /  -1.4 °C 29.60in /  1002.3hPa NW 5.6mph /  9km/h 21mph /  33.8km/h 67% 0.00in /  0mm 0 W/m2
16:29 39.2 °F /  4 °C 29.3 °F /  -1.5 °C 29.60in /  1002.3hPa NW 5.8mph /  9.3km/h 21mph /  33.8km/h 67.4% 0.00in /  0mm 0 W/m2
16:34 38.8 °F /  3.8 °C 28.8 °F /  -1.8 °C 29.60in /  1002.3hPa NW 8.6mph /  13.8km/h 22mph /  35.4km/h 67% 0.00in /  0mm 0 W/m2
16:39 38.6 °F /  3.7 °C 28.8 °F /  -1.8 °C 29.61in /  1002.6hPa NW 4.1mph /  6.6km/h 22mph /  35.4km/h 67.4% 0.00in /  0mm 0 W/m2
16:44 38.4 °F /  3.6 °C 28.6 °F /  -1.9 °C 29.61in /  1002.6hPa NW 5.9mph /  9.5km/h 22mph /  35.4km/h 67.5% 0.00in /  0mm 0 W/m2
16:49 38.2 °F /  3.4 °C 28.1 °F /  -2.2 °C 29.61in /  1002.6hPa WNW 5.3mph /  8.5km/h 22mph /  35.4km/h 66.7% 0.00in /  0mm 0 W/m2
16:54 38 °F /  3.3 °C 28 °F /  -2.2 °C 29.61in /  1002.6hPa WNW 4.9mph /  7.9km/h 22mph /  35.4km/h 66.8% 0.00in /  0mm 0 W/m2
16:59 37.9 °F /  3.3 °C 27.6 °F /  -2.4 °C 29.62in /  1002.9hPa NW 5.4mph /  8.7km/h 22mph /  35.4km/h 66.2% 0.00in /  0mm 0 W/m2
17:04 37.7 °F /  3.2 °C 27.4 °F /  -2.6 °C 29.62in /  1002.9hPa NW 5.8mph /  9.3km/h 22mph /  35.4km/h 66% 0.00in /  0mm 0 W/m2
17:09 37.6 °F /  3.1 °C 27.3 °F /  -2.6 °C 29.62in /  1002.9hPa NW 7.2mph /  11.6km/h 15mph /  24.1km/h 66% 0.00in /  0mm 0 W/m2
17:14 37.5 °F /  3.1 °C 27.1 °F /  -2.7 °C 29.63in /  1003.3hPa NW 6mph /  9.7km/h 17mph /  27.4km/h 65.8% 0.00in /  0mm 0 W/m2
17:19 37.4 °F /  3 °C 27.1 °F /  -2.7 °C 29.64in /  1003.6hPa NW 5.3mph /  8.5km/h 17mph /  27.4km/h 66% 0.00in /  0mm 0 W/m2
17:24 37.3 °F /  2.9 °C 26.6 °F /  -3 °C 29.64in /  1003.6hPa NW 5.6mph /  9km/h 17mph /  27.4km/h 65% 0.00in /  0mm 0 W/m2
17:29 37.2 °F /  2.9 °C 26.3 °F /  -3.2 °C 29.65in /  1003.9hPa NW 7.6mph /  12.2km/h 17mph /  27.4km/h 64.5% 0.00in /  0mm 0 W/m2
17:34 37.1 °F /  2.8 °C 26 °F /  -3.3 °C 29.65in /  1003.9hPa NW 8.6mph /  13.8km/h 19mph /  30.6km/h 63.7% 0.00in /  0mm 0 W/m2
17:39 37.1 °F /  2.8 °C 25.8 °F /  -3.4 °C 29.66in /  1004.3hPa NW 6.5mph /  10.5km/h 21mph /  33.8km/h 63.2% 0.00in /  0mm 0 W/m2
17:44 37 °F /  2.8 °C 25.4 °F /  -3.7 °C 29.67in /  1004.6hPa NW 5.9mph /  9.5km/h 21mph /  33.8km/h 62.5% 0.00in /  0mm 0 W/m2
17:49 36.9 °F /  2.7 °C 25.1 °F /  -3.8 °C 29.67in /  1004.6hPa NW 7.5mph /  12.1km/h 21mph /  33.8km/h 62% 0.00in /  0mm 0 W/m2
17:54 36.7 °F /  2.6 °C 24.7 °F /  -4.1 °C 29.67in /  1004.6hPa NW 8mph /  12.9km/h 21mph /  33.8km/h 61.5% 0.00in /  0mm 0 W/m2
17:59 36.6 °F /  2.6 °C 24.4 °F /  -4.2 °C 29.68in /  1005hPa NW 2.8mph /  4.5km/h 21mph /  33.8km/h 61% 0.00in /  0mm 0 W/m2
18:04 36.5 °F /  2.5 °C 24.3 °F /  -4.3 °C 29.68in /  1005hPa NW 6.3mph /  10.1km/h 21mph /  33.8km/h 61% 0.00in /  0mm 0 W/m2
18:09 36.3 °F /  2.4 °C 24.2 °F /  -4.3 °C 29.69in /  1005.3hPa WNW 5.5mph /  8.9km/h 14mph /  22.5km/h 61% 0.00in /  0mm 0 W/m2
18:14 36.2 °F /  2.3 °C 23.9 °F /  -4.5 °C 29.69in /  1005.3hPa WNW 5.8mph /  9.3km/h 14mph /  22.5km/h 60.6% 0.00in /  0mm 0 W/m2
18:19 36.1 °F /  2.3 °C 23.6 °F /  -4.7 °C 29.69in /  1005.3hPa WNW 7.9mph /  12.7km/h 16mph /  25.7km/h 60% 0.00in /  0mm 0 W/m2
18:24 36 °F /  2.2 °C 23.2 °F /  -4.9 °C 29.69in /  1005.3hPa WNW 6.5mph /  10.5km/h 16mph /  25.7km/h 59.3% 0.00in /  0mm 0 W/m2
18:29 35.9 °F /  2.2 °C 22.6 °F /  -5.2 °C 29.69in /  1005.3hPa WNW 8.4mph /  13.5km/h 16mph /  25.7km/h 58% 0.00in /  0mm 0 W/m2
18:34 35.8 °F /  2.1 °C 22.1 °F /  -5.5 °C 29.70in /  1005.6hPa WNW 7.6mph /  12.2km/h 16mph /  25.7km/h 57% 0.00in /  0mm 0 W/m2
18:39 35.7 °F /  2.1 °C 22 °F /  -5.6 °C 29.71in /  1006hPa WNW 6.9mph /  11.1km/h 16mph /  25.7km/h 57% 0.00in /  0mm 0 W/m2
18:44 35.6 °F /  2 °C 21.9 °F /  -5.6 °C 29.71in /  1006hPa NW 6.6mph /  10.6km/h 16mph /  25.7km/h 57% 0.00in /  0mm 0 W/m2
18:49 35.5 °F /  1.9 °C 22.2 °F /  -5.4 °C 29.71in /  1006hPa WNW 3.7mph /  6km/h 16mph /  25.7km/h 57.9% 0.00in /  0mm 0 W/m2
18:54 35.4 °F /  1.9 °C 21.7 °F /  -5.7 °C 29.72in /  1006.3hPa NW 3.5mph /  5.6km/h 16mph /  25.7km/h 57% 0.00in /  0mm 0 W/m2
18:59 35.2 °F /  1.8 °C 21.7 °F /  -5.7 °C 29.72in /  1006.3hPa WNW 3.1mph /  5km/h 16mph /  25.7km/h 57.5% 0.00in /  0mm 0 W/m2
19:04 35.1 °F /  1.7 °C 21.7 °F /  -5.7 °C 29.72in /  1006.3hPa NW 3.9mph /  6.3km/h 16mph /  25.7km/h 57.9% 0.00in /  0mm 0 W/m2
19:09 35 °F /  1.7 °C 21.5 °F /  -5.8 °C 29.72in /  1006.3hPa NW 2.9mph /  4.7km/h 13mph /  20.9km/h 57.6% 0.00in /  0mm 0 W/m2
19:14 34.8 °F /  1.6 °C 21.3 °F /  -5.9 °C 29.72in /  1006.3hPa NW 6mph /  9.7km/h 15mph /  24.1km/h 57.4% 0.00in /  0mm 0 W/m2
19:19 34.8 °F /  1.6 °C 21.1 °F /  -6.1 °C 29.72in /  1006.3hPa NW 6.5mph /  10.5km/h 17mph /  27.4km/h 57% 0.00in /  0mm 0 W/m2
19:24 34.7 °F /  1.5 °C 21 °F /  -6.1 °C 29.72in /  1006.3hPa NW 3mph /  4.8km/h 17mph /  27.4km/h 57% 0.00in /  0mm 0 W/m2
19:29 34.7 °F /  1.5 °C 21 °F /  -6.1 °C 29.73in /  1006.7hPa NW 1.9mph /  3.1km/h 17mph /  27.4km/h 57% 0.00in /  0mm 0 W/m2
19:34 34.6 °F /  1.4 °C 20.9 °F /  -6.2 °C 29.72in /  1006.3hPa WNW 3.5mph /  5.6km/h 17mph /  27.4km/h 57% 0.00in /  0mm 0 W/m2
19:39 34.5 °F /  1.4 °C 20.8 °F /  -6.2 °C 29.73in /  1006.7hPa WNW 0.2mph /  0.3km/h 11mph /  17.7km/h 57% 0.00in /  0mm 0 W/m2
19:44 34.3 °F /  1.3 °C 21 °F /  -6.1 °C 29.73in /  1006.7hPa WNW 0.4mph /  0.6km/h 11mph /  17.7km/h 57.7% 0.00in /  0mm 0 W/m2
19:49 34.2 °F /  1.2 °C 20.6 °F /  -6.3 °C 29.73in /  1006.7hPa Calm   11mph /  17.7km/h 57% 0.00in /  0mm 0 W/m2
19:54 34.1 °F /  1.2 °C 20.8 °F /  -6.2 °C 29.74in /  1007hPa Calm   11mph /  17.7km/h 57.6% 0.00in /  0mm 0 W/m2
19:59 33.9 °F /  1.1 °C 20.6 °F /  -6.3 °C 29.74in /  1007hPa Calm   11mph /  17.7km/h 57.6% 0.00in /  0mm 0 W/m2
20:00 33.9 °F /  1.1 °C 20.7 °F /  -6.3 °C 29.74in /  1007hPa Calm   11mph /  17.7km/h 58% 0.00in /  0mm 0 W/m2
20:09 33.5 °F /  0.8 °C 21.1 °F /  -6.1 °C 29.74in /  1007hPa Calm     59.9% 0.00in /  0mm 0 W/m2
20:14 33.3 °F /  0.7 °C 21 °F /  -6.1 °C 29.74in /  1007hPa Calm     60.3% 0.00in /  0mm 0 W/m2
20:19 33 °F /  0.6 °C 21.1 °F /  -6.1 °C 29.74in /  1007hPa WNW 0.1mph /  0.2km/h 1mph /  1.6km/h 61% 0.00in /  0mm 0 W/m2
20:24 32.9 °F /  0.5 °C 20.9 °F /  -6.2 °C 29.74in /  1007hPa WNW 0.1mph /  0.2km/h 1mph /  1.6km/h 61% 0.00in /  0mm 0 W/m2
20:29 32.7 °F /  0.4 °C 20.8 °F /  -6.2 °C 29.74in /  1007hPa WNW 1.2mph /  1.9km/h 7mph /  11.3km/h 61% 0.00in /  0mm 0 W/m2
20:34 32.7 °F /  0.4 °C 20.8 °F /  -6.2 °C 29.75in /  1007.3hPa WNW 3mph /  4.8km/h 10mph /  16.1km/h 61% 0.00in /  0mm 0 W/m2
20:39 32.9 °F /  0.5 °C 20.9 °F /  -6.2 °C 29.75in /  1007.3hPa WNW 7.6mph /  12.2km/h 13mph /  20.9km/h 61% 0.00in /  0mm 0 W/m2
20:44 33.2 °F /  0.7 °C 20.9 °F /  -6.2 °C 29.75in /  1007.3hPa WNW 4.4mph /  7.1km/h 13mph /  20.9km/h 60% 0.00in /  0mm 0 W/m2
20:49 33.4 °F /  0.8 °C 21.1 °F /  -6.1 °C 29.75in /  1007.3hPa WNW 4.5mph /  7.2km/h 13mph /  20.9km/h 60% 0.00in /  0mm 0 W/m2
20:54 33.6 °F /  0.9 °C 21.2 °F /  -6 °C 29.75in /  1007.3hPa NW 5.2mph /  8.4km/h 15mph /  24.1km/h 60% 0.00in /  0mm 0 W/m2
20:59 33.8 °F /  1 °C 21.5 °F /  -5.8 °C 29.75in /  1007.3hPa WNW 6.6mph /  10.6km/h 19mph /  30.6km/h 60.3% 0.00in /  0mm 0 W/m2
21:04 34 °F /  1.1 °C 21.1 °F /  -6.1 °C 29.75in /  1007.3hPa NW 7.8mph /  12.6km/h 19mph /  30.6km/h 58.9% 0.00in /  0mm 0 W/m2
21:09 34.2 °F /  1.2 °C 21 °F /  -6.1 °C 29.75in /  1007.3hPa NW 5.6mph /  9km/h 18mph /  29km/h 58% 0.00in /  0mm 0 W/m2
21:14 34.3 °F /  1.3 °C 20.9 °F /  -6.2 °C 29.76in /  1007.7hPa WNW 7.4mph /  11.9km/h 21mph /  33.8km/h 57.7% 0.00in /  0mm 0 W/m2
21:19 34.4 °F /  1.3 °C 21 °F /  -6.1 °C 29.76in /  1007.7hPa WNW 3.7mph /  6km/h 21mph /  33.8km/h 57.7% 0.00in /  0mm 0 W/m2
21:24 34.4 °F /  1.3 °C 20.8 °F /  -6.2 °C 29.76in /  1007.7hPa NW 7.8mph /  12.6km/h 21mph /  33.8km/h 57% 0.00in /  0mm 0 W/m2
21:29 34.4 °F /  1.3 °C 20.8 °F /  -6.2 °C 29.76in /  1007.7hPa WNW 3.8mph /  6.1km/h 21mph /  33.8km/h 57% 0.00in /  0mm 0 W/m2
21:34 34.4 °F /  1.3 °C 20.8 °F /  -6.2 °C 29.77in /  1008hPa NW 4.6mph /  7.4km/h 21mph /  33.8km/h 57% 0.00in /  0mm 0 W/m2
21:39 34.4 °F /  1.3 °C 20.8 °F /  -6.2 °C 29.76in /  1007.7hPa NW 3.8mph /  6.1km/h 14mph /  22.5km/h 57% 0.00in /  0mm 0 W/m2
21:44 34.4 °F /  1.3 °C 20.8 °F /  -6.2 °C 29.77in /  1008hPa NW 5.5mph /  8.9km/h 14mph /  22.5km/h 57% 0.00in /  0mm 0 W/m2
21:49 34.4 °F /  1.3 °C 20.8 °F /  -6.2 °C 29.77in /  1008hPa NW 6mph /  9.7km/h 16mph /  25.7km/h 57% 0.00in /  0mm 0 W/m2
21:54 34.4 °F /  1.3 °C 20.9 °F /  -6.2 °C 29.77in /  1008hPa WNW 0.8mph /  1.3km/h 16mph /  25.7km/h 57.3% 0.00in /  0mm 0 W/m2
21:59 34.3 °F /  1.3 °C 21.1 °F /  -6.1 °C 29.77in /  1008hPa NW 1.7mph /  2.7km/h 16mph /  25.7km/h 58% 0.00in /  0mm 0 W/m2
22:04 34.2 °F /  1.2 °C 21 °F /  -6.1 °C 29.77in /  1008hPa WNW 3.6mph /  5.8km/h 18mph /  29km/h 58% 0.00in /  0mm 0 W/m2
22:09 34.2 °F /  1.2 °C 21 °F /  -6.1 °C 29.78in /  1008.4hPa NW 6.2mph /  10km/h 19mph /  30.6km/h 58% 0.00in /  0mm 0 W/m2
22:14 34.2 °F /  1.2 °C 21.5 °F /  -5.8 °C 29.78in /  1008.4hPa NW 1.6mph /  2.6km/h 19mph /  30.6km/h 59.3% 0.00in /  0mm 0 W/m2
22:19 34.2 °F /  1.2 °C 21.1 °F /  -6.1 °C 29.78in /  1008.4hPa WNW 1.5mph /  2.4km/h 19mph /  30.6km/h 58.3% 0.00in /  0mm 0 W/m2
22:24 34.2 °F /  1.2 °C 20.9 °F /  -6.2 °C 29.78in /  1008.4hPa WNW 3.8mph /  6.1km/h 19mph /  30.6km/h 58% 0.00in /  0mm 0 W/m2
22:29 34.1 °F /  1.2 °C 21.3 °F /  -5.9 °C 29.78in /  1008.4hPa NW 1.5mph /  2.4km/h 19mph /  30.6km/h 59% 0.00in /  0mm 0 W/m2
22:34 34.1 °F /  1.2 °C 21.3 °F /  -5.9 °C 29.79in /  1008.7hPa NW 2mph /  3.2km/h 19mph /  30.6km/h 59% 0.00in /  0mm 0 W/m2
22:39 34.1 °F /  1.2 °C 21.3 °F /  -5.9 °C 29.79in /  1008.7hPa WNW 5.8mph /  9.3km/h 12mph /  19.3km/h 59% 0.00in /  0mm 0 W/m2
22:44 34.1 °F /  1.2 °C 20.9 °F /  -6.2 °C 29.79in /  1008.7hPa WNW 3.7mph /  6km/h 13mph /  20.9km/h 58% 0.00in /  0mm 0 W/m2
22:49 34.1 °F /  1.2 °C 21 °F /  -6.1 °C 29.79in /  1008.7hPa WNW 2.8mph /  4.5km/h 14mph /  22.5km/h 58.4% 0.00in /  0mm 0 W/m2
22:54 34 °F /  1.1 °C 21.1 °F /  -6.1 °C 29.80in /  1009hPa WNW 6.9mph /  11.1km/h 17mph /  27.4km/h 58.8% 0.00in /  0mm 0 W/m2
22:59 34 °F /  1.1 °C 20.8 °F /  -6.2 °C 29.81in /  1009.4hPa NW 5.7mph /  9.2km/h 17mph /  27.4km/h 58% 0.00in /  0mm 0 W/m2
23:09 34 °F /  1.1 °C 20.7 °F /  -6.3 °C 29.81in /  1009.4hPa NW 6.3mph /  10.1km/h 13mph /  20.9km/h 57.7% 0.00in /  0mm 0 W/m2
23:14 34 °F /  1.1 °C 20.8 °F /  -6.2 °C 29.81in /  1009.4hPa WNW 4.6mph /  7.4km/h 13mph /  20.9km/h 58% 0.00in /  0mm 0 W/m2
23:19 34 °F /  1.1 °C 20.5 °F /  -6.4 °C 29.81in /  1009.4hPa WNW 7.4mph /  11.9km/h 19mph /  30.6km/h 57.3% 0.00in /  0mm 0 W/m2
23:24 34 °F /  1.1 °C 20.6 °F /  -6.3 °C 29.81in /  1009.4hPa NW 10mph /  16.1km/h 20mph /  32.2km/h 57.4% 0.00in /  0mm 0 W/m2
23:29 34.1 °F /  1.2 °C 20.4 °F /  -6.4 °C 29.81in /  1009.4hPa NW 6mph /  9.7km/h 20mph /  32.2km/h 57% 0.00in /  0mm 0 W/m2
23:34 34 °F /  1.1 °C 20 °F /  -6.7 °C 29.82in /  1009.7hPa NW 7.7mph /  12.4km/h 20mph /  32.2km/h 56.2% 0.00in /  0mm 0 W/m2
23:39 34 °F /  1.1 °C 20 °F /  -6.7 °C 29.82in /  1009.7hPa WNW 6.8mph /  10.9km/h 18mph /  29km/h 56% 0.00in /  0mm 0 W/m2
23:44 34 °F /  1.1 °C 20 °F /  -6.7 °C 29.82in /  1009.7hPa NW 5.8mph /  9.3km/h 18mph /  29km/h 56% 0.00in /  0mm 0 W/m2
23:49 34 °F /  1.1 °C 19.9 °F /  -6.7 °C 29.82in /  1009.7hPa NW 3.8mph /  6.1km/h 18mph /  29km/h 56% 0.00in /  0mm 0 W/m2
23:53 33.8 °F /  1 °C 19.8 °F /  -6.8 °C 29.83in /  1010hPa NW 8.7mph /  14km/h 18mph /  29km/h 56% 0.00in /  0mm 0 W/m2
Hartford County Weather
Compliments of Weather Underground - 2 mb